sensor_id;sensor_type;location;lat;lon;timestamp;temperature;humidity
20349;DHT22;10332;50.208;18.988;2022-08-21T00:00:22;20.40;99.90
20349;DHT22;10332;50.208;18.988;2022-08-21T00:03:06;20.40;99.90
20349;DHT22;10332;50.208;18.988;2022-08-21T00:05:44;20.50;99.90
20349;DHT22;10332;50.208;18.988;2022-08-21T00:08:14;20.40;99.90
20349;DHT22;10332;50.208;18.988;2022-08-21T00:10:43;20.50;99.90
20349;DHT22;10332;50.208;18.988;2022-08-21T00:13:12;20.50;99.90
20349;DHT22;10332;50.208;18.988;2022-08-21T00:15:45;20.50;99.90
20349;DHT22;10332;50.208;18.988;2022-08-21T00:18:15;20.50;99.90
20349;DHT22;10332;50.208;18.988;2022-08-21T00:20:43;20.50;99.90
20349;DHT22;10332;50.208;18.988;2022-08-21T00:23:12;20.50;99.90
20349;DHT22;10332;50.208;18.988;2022-08-21T00:25:41;20.50;99.90
20349;DHT22;10332;50.208;18.988;2022-08-21T00:28:12;20.50;99.90
20349;DHT22;10332;50.208;18.988;2022-08-21T00:30:41;20.50;99.90
20349;DHT22;10332;50.208;18.988;2022-08-21T00:33:10;20.50;99.90
20349;DHT22;10332;50.208;18.988;2022-08-21T00:35:41;20.50;99.90
20349;DHT22;10332;50.208;18.988;2022-08-21T00:38:10;20.50;99.90
20349;DHT22;10332;50.208;18.988;2022-08-21T00:40:39;20.50;99.90
20349;DHT22;10332;50.208;18.988;2022-08-21T00:43:21;20.50;99.90
20349;DHT22;10332;50.208;18.988;2022-08-21T00:45:51;20.50;99.90
20349;DHT22;10332;50.208;18.988;2022-08-21T00:48:20;20.50;99.90
20349;DHT22;10332;50.208;18.988;2022-08-21T00:51:11;20.50;99.90
20349;DHT22;10332;50.208;18.988;2022-08-21T00:53:45;20.50;99.90
20349;DHT22;10332;50.208;18.988;2022-08-21T00:56:21;20.50;99.90
20349;DHT22;10332;50.208;18.988;2022-08-21T00:58:54;20.60;99.90
20349;DHT22;10332;50.208;18.988;2022-08-21T01:01:24;20.60;99.90
20349;DHT22;10332;50.208;18.988;2022-08-21T01:03:51;20.60;99.90
20349;DHT22;10332;50.208;18.988;2022-08-21T01:06:19;20.70;99.90
20349;DHT22;10332;50.208;18.988;2022-08-21T01:08:47;20.70;99.90
20349;DHT22;10332;50.208;18.988;2022-08-21T01:11:15;20.70;99.90
20349;DHT22;10332;50.208;18.988;2022-08-21T01:13:43;20.80;99.90
20349;DHT22;10332;50.208;18.988;2022-08-21T01:16:17;20.80;99.90
20349;DHT22;10332;50.208;18.988;2022-08-21T01:18:48;20.80;99.90
20349;DHT22;10332;50.208;18.988;2022-08-21T01:21:23;20.80;99.90
20349;DHT22;10332;50.208;18.988;2022-08-21T01:23:56;20.80;99.90
20349;DHT22;10332;50.208;18.988;2022-08-21T01:26:27;20.90;99.90
20349;DHT22;10332;50.208;18.988;2022-08-21T01:32:02;20.90;99.90
20349;DHT22;10332;50.208;18.988;2022-08-21T01:34:34;20.90;99.90
20349;DHT22;10332;50.208;18.988;2022-08-21T01:37:04;20.90;99.90
20349;DHT22;10332;50.208;18.988;2022-08-21T01:39:33;21.00;99.90
20349;DHT22;10332;50.208;18.988;2022-08-21T01:42:03;20.90;99.90
20349;DHT22;10332;50.208;18.988;2022-08-21T01:44:32;21.00;99.90
20349;DHT22;10332;50.208;18.988;2022-08-21T01:47:02;21.00;99.90
20349;DHT22;10332;50.208;18.988;2022-08-21T01:49:32;21.00;99.90
20349;DHT22;10332;50.208;18.988;2022-08-21T01:51:59;21.00;99.90
20349;DHT22;10332;50.208;18.988;2022-08-21T01:54:27;21.00;99.90
20349;DHT22;10332;50.208;18.988;2022-08-21T01:56:55;21.00;99.90
20349;DHT22;10332;50.208;18.988;2022-08-21T01:59:23;21.00;99.90
20349;DHT22;10332;50.208;18.988;2022-08-21T02:01:51;21.00;99.90
20349;DHT22;10332;50.208;18.988;2022-08-21T02:04:21;21.00;99.90
20349;DHT22;10332;50.208;18.988;2022-08-21T02:06:49;21.00;99.90
20349;DHT22;10332;50.208;18.988;2022-08-21T02:09:17;21.00;99.90
20349;DHT22;10332;50.208;18.988;2022-08-21T02:11:46;21.00;99.90
20349;DHT22;10332;50.208;18.988;2022-08-21T02:14:14;21.00;99.90
20349;DHT22;10332;50.208;18.988;2022-08-21T02:16:59;21.10;99.90
20349;DHT22;10332;50.208;18.988;2022-08-21T02:19:36;21.10;99.90
20349;DHT22;10332;50.208;18.988;2022-08-21T02:22:10;21.10;99.90
20349;DHT22;10332;50.208;18.988;2022-08-21T02:24:39;21.10;99.90
20349;DHT22;10332;50.208;18.988;2022-08-21T02:27:22;21.10;99.90
20349;DHT22;10332;50.208;18.988;2022-08-21T02:29:55;21.10;99.90
20349;DHT22;10332;50.208;18.988;2022-08-21T02:32:25;21.10;99.90
20349;DHT22;10332;50.208;18.988;2022-08-21T02:34:53;21.10;99.90
20349;DHT22;10332;50.208;18.988;2022-08-21T02:37:20;21.20;99.90
20349;DHT22;10332;50.208;18.988;2022-08-21T02:39:48;21.20;99.90
20349;DHT22;10332;50.208;18.988;2022-08-21T02:42:17;21.20;99.90
20349;DHT22;10332;50.208;18.988;2022-08-21T02:44:44;21.20;99.90
20349;DHT22;10332;50.208;18.988;2022-08-21T02:47:13;21.20;99.90
20349;DHT22;10332;50.208;18.988;2022-08-21T02:49:41;21.20;99.90
20349;DHT22;10332;50.208;18.988;2022-08-21T02:52:08;21.20;99.90
20349;DHT22;10332;50.208;18.988;2022-08-21T02:54:36;21.20;99.90
20349;DHT22;10332;50.208;18.988;2022-08-21T02:57:03;21.30;99.90
20349;DHT22;10332;50.208;18.988;2022-08-21T02:59:31;21.30;99.90
20349;DHT22;10332;50.208;18.988;2022-08-21T03:01:59;21.30;99.90
20349;DHT22;10332;50.208;18.988;2022-08-21T03:04:26;21.30;99.90
20349;DHT22;10332;50.208;18.988;2022-08-21T03:06:53;21.30;99.90
20349;DHT22;10332;50.208;18.988;2022-08-21T03:09:21;21.30;99.90
20349;DHT22;10332;50.208;18.988;2022-08-21T03:11:48;21.30;99.90
20349;DHT22;10332;50.208;18.988;2022-08-21T03:14:15;21.30;99.90
20349;DHT22;10332;50.208;18.988;2022-08-21T03:16:43;21.30;99.90
20349;DHT22;10332;50.208;18.988;2022-08-21T03:19:11;21.30;99.90
20349;DHT22;10332;50.208;18.988;2022-08-21T03:21:39;21.20;99.90
20349;DHT22;10332;50.208;18.988;2022-08-21T03:24:07;21.30;99.90
20349;DHT22;10332;50.208;18.988;2022-08-21T03:26:36;21.30;99.90
20349;DHT22;10332;50.208;18.988;2022-08-21T03:29:06;21.30;99.90
20349;DHT22;10332;50.208;18.988;2022-08-21T03:31:34;21.30;99.90
20349;DHT22;10332;50.208;18.988;2022-08-21T03:34:01;21.30;99.90
20349;DHT22;10332;50.208;18.988;2022-08-21T03:36:29;21.30;99.90
20349;DHT22;10332;50.208;18.988;2022-08-21T03:38:56;21.30;99.90
20349;DHT22;10332;50.208;18.988;2022-08-21T03:41:23;21.40;99.90
20349;DHT22;10332;50.208;18.988;2022-08-21T03:43:51;21.40;99.90
20349;DHT22;10332;50.208;18.988;2022-08-21T03:46:18;21.40;99.90
20349;DHT22;10332;50.208;18.988;2022-08-21T03:48:46;21.40;99.90
20349;DHT22;10332;50.208;18.988;2022-08-21T03:51:14;21.40;99.90
20349;DHT22;10332;50.208;18.988;2022-08-21T03:53:41;21.40;99.90
20349;DHT22;10332;50.208;18.988;2022-08-21T03:56:09;21.40;99.90
20349;DHT22;10332;50.208;18.988;2022-08-21T03:58:37;21.40;99.90
20349;DHT22;10332;50.208;18.988;2022-08-21T04:01:06;21.40;99.90
20349;DHT22;10332;50.208;18.988;2022-08-21T04:03:35;21.40;99.90
20349;DHT22;10332;50.208;18.988;2022-08-21T04:06:04;21.40;99.90
20349;DHT22;10332;50.208;18.988;2022-08-21T04:08:32;21.40;99.90
20349;DHT22;10332;50.208;18.988;2022-08-21T04:11:00;21.40;99.90
20349;DHT22;10332;50.208;18.988;2022-08-21T04:13:28;21.40;99.90
20349;DHT22;10332;50.208;18.988;2022-08-21T04:15:56;21.40;99.90
20349;DHT22;10332;50.208;18.988;2022-08-21T04:18:25;21.50;99.90
20349;DHT22;10332;50.208;18.988;2022-08-21T04:20:53;21.50;99.90
20349;DHT22;10332;50.208;18.988;2022-08-21T04:23:24;21.50;99.90
20349;DHT22;10332;50.208;18.988;2022-08-21T04:25:54;21.50;99.90
20349;DHT22;10332;50.208;18.988;2022-08-21T04:28:24;21.50;99.90
20349;DHT22;10332;50.208;18.988;2022-08-21T04:30:57;21.50;99.90
20349;DHT22;10332;50.208;18.988;2022-08-21T04:33:24;21.50;99.90
20349;DHT22;10332;50.208;18.988;2022-08-21T04:35:52;21.50;99.90
20349;DHT22;10332;50.208;18.988;2022-08-21T04:38:20;21.60;99.90
20349;DHT22;10332;50.208;18.988;2022-08-21T04:40:49;21.60;99.90
20349;DHT22;10332;50.208;18.988;2022-08-21T04:43:17;21.60;99.90
20349;DHT22;10332;50.208;18.988;2022-08-21T04:45:47;21.70;99.90
20349;DHT22;10332;50.208;18.988;2022-08-21T04:48:19;21.80;99.90
20349;DHT22;10332;50.208;18.988;2022-08-21T04:51:03;21.80;99.90
20349;DHT22;10332;50.208;18.988;2022-08-21T04:53:49;22.00;99.90
20349;DHT22;10332;50.208;18.988;2022-08-21T04:59:00;22.00;99.90
20349;DHT22;10332;50.208;18.988;2022-08-21T05:01:34;22.00;99.90
20349;DHT22;10332;50.208;18.988;2022-08-21T05:04:06;22.00;99.90
20349;DHT22;10332;50.208;18.988;2022-08-21T05:06:39;22.00;99.90
20349;DHT22;10332;50.208;18.988;2022-08-21T05:09:14;22.00;99.90
20349;DHT22;10332;50.208;18.988;2022-08-21T05:11:43;22.00;99.90
20349;DHT22;10332;50.208;18.988;2022-08-21T05:14:12;22.00;99.90
20349;DHT22;10332;50.208;18.988;2022-08-21T05:16:39;21.90;99.90
20349;DHT22;10332;50.208;18.988;2022-08-21T05:19:09;21.80;99.90
20349;DHT22;10332;50.208;18.988;2022-08-21T05:21:41;21.80;99.90
20349;DHT22;10332;50.208;18.988;2022-08-21T05:24:08;21.90;99.90
20349;DHT22;10332;50.208;18.988;2022-08-21T05:26:37;21.90;99.90
20349;DHT22;10332;50.208;18.988;2022-08-21T05:29:14;22.00;99.90
20349;DHT22;10332;50.208;18.988;2022-08-21T05:31:46;22.10;99.90
20349;DHT22;10332;50.208;18.988;2022-08-21T05:34:17;22.20;99.90
20349;DHT22;10332;50.208;18.988;2022-08-21T05:36:46;22.30;99.90
20349;DHT22;10332;50.208;18.988;2022-08-21T05:39:14;22.30;99.90
20349;DHT22;10332;50.208;18.988;2022-08-21T05:41:42;22.30;99.90
20349;DHT22;10332;50.208;18.988;2022-08-21T05:44:09;22.30;99.90
20349;DHT22;10332;50.208;18.988;2022-08-21T05:46:37;22.20;99.90
20349;DHT22;10332;50.208;18.988;2022-08-21T05:49:05;22.20;99.90
20349;DHT22;10332;50.208;18.988;2022-08-21T05:51:32;22.20;99.90
20349;DHT22;10332;50.208;18.988;2022-08-21T05:53:59;22.20;99.90
20349;DHT22;10332;50.208;18.988;2022-08-21T05:56:27;22.20;99.90
20349;DHT22;10332;50.208;18.988;2022-08-21T05:58:54;22.20;99.90
20349;DHT22;10332;50.208;18.988;2022-08-21T06:01:22;22.10;99.90
20349;DHT22;10332;50.208;18.988;2022-08-21T06:03:49;22.00;99.90
20349;DHT22;10332;50.208;18.988;2022-08-21T06:06:17;22.00;99.90
20349;DHT22;10332;50.208;18.988;2022-08-21T06:08:44;21.90;99.90
20349;DHT22;10332;50.208;18.988;2022-08-21T06:11:12;21.90;99.90
20349;DHT22;10332;50.208;18.988;2022-08-21T06:13:39;22.00;99.90
20349;DHT22;10332;50.208;18.988;2022-08-21T06:16:13;22.00;99.90
20349;DHT22;10332;50.208;18.988;2022-08-21T06:18:44;22.10;99.90
20349;DHT22;10332;50.208;18.988;2022-08-21T06:21:12;22.00;99.90
20349;DHT22;10332;50.208;18.988;2022-08-21T06:23:41;22.00;99.90
20349;DHT22;10332;50.208;18.988;2022-08-21T06:26:12;21.90;99.90
20349;DHT22;10332;50.208;18.988;2022-08-21T06:28:42;21.80;99.90
20349;DHT22;10332;50.208;18.988;2022-08-21T06:31:14;21.70;99.90
20349;DHT22;10332;50.208;18.988;2022-08-21T06:33:44;21.60;99.90
20349;DHT22;10332;50.208;18.988;2022-08-21T06:36:12;21.50;99.90
20349;DHT22;10332;50.208;18.988;2022-08-21T06:38:40;21.40;99.90
20349;DHT22;10332;50.208;18.988;2022-08-21T06:41:17;21.30;99.90
20349;DHT22;10332;50.208;18.988;2022-08-21T06:43:51;21.20;99.90
20349;DHT22;10332;50.208;18.988;2022-08-21T06:46:20;21.10;99.90
20349;DHT22;10332;50.208;18.988;2022-08-21T06:48:49;21.10;99.90
20349;DHT22;10332;50.208;18.988;2022-08-21T06:51:16;21.10;99.90
20349;DHT22;10332;50.208;18.988;2022-08-21T06:53:43;21.10;99.90
20349;DHT22;10332;50.208;18.988;2022-08-21T06:56:11;21.10;99.90
20349;DHT22;10332;50.208;18.988;2022-08-21T06:58:38;21.20;99.90
20349;DHT22;10332;50.208;18.988;2022-08-21T07:01:06;21.30;99.90
20349;DHT22;10332;50.208;18.988;2022-08-21T07:03:38;21.30;99.90
20349;DHT22;10332;50.208;18.988;2022-08-21T07:06:08;21.30;99.90
20349;DHT22;10332;50.208;18.988;2022-08-21T07:08:37;21.30;99.90
20349;DHT22;10332;50.208;18.988;2022-08-21T07:11:14;21.50;99.90
20349;DHT22;10332;50.208;18.988;2022-08-21T07:13:45;21.70;99.90
20349;DHT22;10332;50.208;18.988;2022-08-21T07:16:13;21.90;99.90
20349;DHT22;10332;50.208;18.988;2022-08-21T07:18:41;22.00;99.90
20349;DHT22;10332;50.208;18.988;2022-08-21T07:21:09;22.10;99.90
20349;DHT22;10332;50.208;18.988;2022-08-21T07:23:46;22.10;99.90
20349;DHT22;10332;50.208;18.988;2022-08-21T07:26:20;22.20;99.90
20349;DHT22;10332;50.208;18.988;2022-08-21T07:28:49;22.30;99.90
20349;DHT22;10332;50.208;18.988;2022-08-21T07:31:19;22.30;99.90
20349;DHT22;10332;50.208;18.988;2022-08-21T07:33:48;22.30;99.90
20349;DHT22;10332;50.208;18.988;2022-08-21T07:36:16;22.30;99.90
20349;DHT22;10332;50.208;18.988;2022-08-21T07:38:50;22.30;99.90
20349;DHT22;10332;50.208;18.988;2022-08-21T07:41:21;22.30;99.90
20349;DHT22;10332;50.208;18.988;2022-08-21T07:43:52;22.40;99.90
20349;DHT22;10332;50.208;18.988;2022-08-21T07:46:20;22.50;99.90
20349;DHT22;10332;50.208;18.988;2022-08-21T07:48:47;22.60;99.90
20349;DHT22;10332;50.208;18.988;2022-08-21T07:51:16;22.70;99.90
20349;DHT22;10332;50.208;18.988;2022-08-21T07:53:52;22.80;99.90
20349;DHT22;10332;50.208;18.988;2022-08-21T07:56:21;22.80;99.90
20349;DHT22;10332;50.208;18.988;2022-08-21T07:58:49;22.90;99.90
20349;DHT22;10332;50.208;18.988;2022-08-21T08:01:17;23.00;99.90
20349;DHT22;10332;50.208;18.988;2022-08-21T08:03:45;23.10;99.90
20349;DHT22;10332;50.208;18.988;2022-08-21T08:06:13;23.20;99.90
20349;DHT22;10332;50.208;18.988;2022-08-21T08:08:41;23.30;99.90
20349;DHT22;10332;50.208;18.988;2022-08-21T08:11:10;23.50;99.90
20349;DHT22;10332;50.208;18.988;2022-08-21T08:13:40;23.60;99.80
20349;DHT22;10332;50.208;18.988;2022-08-21T08:16:09;23.90;99.20
20349;DHT22;10332;50.208;18.988;2022-08-21T08:18:37;24.50;97.30
20349;DHT22;10332;50.208;18.988;2022-08-21T08:21:05;25.20;94.20
20349;DHT22;10332;50.208;18.988;2022-08-21T08:23:33;25.70;92.70
20349;DHT22;10332;50.208;18.988;2022-08-21T08:26:01;26.20;92.20
20349;DHT22;10332;50.208;18.988;2022-08-21T08:28:32;26.60;90.10
20349;DHT22;10332;50.208;18.988;2022-08-21T08:31:00;27.20;87.40
20349;DHT22;10332;50.208;18.988;2022-08-21T08:33:29;27.90;83.50
20349;DHT22;10332;50.208;18.988;2022-08-21T08:35:56;28.20;77.00
20349;DHT22;10332;50.208;18.988;2022-08-21T08:38:29;28.40;77.00
20349;DHT22;10332;50.208;18.988;2022-08-21T08:41:17;28.80;75.30
20349;DHT22;10332;50.208;18.988;2022-08-21T08:44:03;29.20;69.20
20349;DHT22;10332;50.208;18.988;2022-08-21T08:46:43;29.20;68.60
20349;DHT22;10332;50.208;18.988;2022-08-21T08:49:41;29.00;68.50
20349;DHT22;10332;50.208;18.988;2022-08-21T08:52:28;28.70;70.10
20349;DHT22;10332;50.208;18.988;2022-08-21T08:57:49;29.00;70.70
20349;DHT22;10332;50.208;18.988;2022-08-21T09:00:20;29.40;68.10
20349;DHT22;10332;50.208;18.988;2022-08-21T09:02:54;29.90;65.40
20349;DHT22;10332;50.208;18.988;2022-08-21T09:05:27;30.60;62.60
20349;DHT22;10332;50.208;18.988;2022-08-21T09:08:20;31.90;54.30
20349;DHT22;10332;50.208;18.988;2022-08-21T09:11:23;32.90;44.80
20349;DHT22;10332;50.208;18.988;2022-08-21T09:14:03;34.30;32.50
20349;DHT22;10332;50.208;18.988;2022-08-21T09:17:04;34.50;23.80
20349;DHT22;10332;50.208;18.988;2022-08-21T09:26:17;31.40;29.50
20349;DHT22;10332;50.208;18.988;2022-08-21T09:28:52;30.20;38.50
20349;DHT22;10332;50.208;18.988;2022-08-21T09:31:32;29.50;46.80
20349;DHT22;10332;50.208;18.988;2022-08-21T09:36:43;28.50;54.50
20349;DHT22;10332;50.208;18.988;2022-08-21T09:39:28;28.10;59.10
20349;DHT22;10332;50.208;18.988;2022-08-21T09:42:08;28.00;63.40
20349;DHT22;10332;50.208;18.988;2022-08-21T09:44:40;28.10;65.30
20349;DHT22;10332;50.208;18.988;2022-08-21T09:47:11;28.20;65.50
20349;DHT22;10332;50.208;18.988;2022-08-21T09:49:41;28.20;63.90
20349;DHT22;10332;50.208;18.988;2022-08-21T09:52:22;28.30;64.40
20349;DHT22;10332;50.208;18.988;2022-08-21T09:54:54;28.30;63.80
20349;DHT22;10332;50.208;18.988;2022-08-21T09:57:25;27.90;66.50
20349;DHT22;10332;50.208;18.988;2022-08-21T10:00:26;27.40;69.60
20349;DHT22;10332;50.208;18.988;2022-08-21T10:03:17;26.70;75.50
20349;DHT22;10332;50.208;18.988;2022-08-21T10:05:57;26.10;81.80
20349;DHT22;10332;50.208;18.988;2022-08-21T10:08:27;25.50;86.30
20349;DHT22;10332;50.208;18.988;2022-08-21T10:11:02;25.10;89.20
20349;DHT22;10332;50.208;18.988;2022-08-21T10:30:56;24.00;96.20
20349;DHT22;10332;50.208;18.988;2022-08-21T10:40:02;23.70;98.20
20349;DHT22;10332;50.208;18.988;2022-08-21T10:42:58;23.60;98.60
20349;DHT22;10332;50.208;18.988;2022-08-21T10:48:45;23.70;98.90
20349;DHT22;10332;50.208;18.988;2022-08-21T10:51:40;23.70;98.80
20349;DHT22;10332;50.208;18.988;2022-08-21T10:54:56;23.80;99.10
20349;DHT22;10332;50.208;18.988;2022-08-21T10:57:48;23.70;99.10
20349;DHT22;10332;50.208;18.988;2022-08-21T11:03:34;23.90;99.30
20349;DHT22;10332;50.208;18.988;2022-08-21T11:06:09;24.10;98.30
20349;DHT22;10332;50.208;18.988;2022-08-21T11:08:44;24.20;97.00
20349;DHT22;10332;50.208;18.988;2022-08-21T11:11:36;24.20;96.60
20349;DHT22;10332;50.208;18.988;2022-08-21T11:14:47;24.30;96.60
20349;DHT22;10332;50.208;18.988;2022-08-21T11:17:45;24.60;96.10
20349;DHT22;10332;50.208;18.988;2022-08-21T11:20:40;24.40;96.60
20349;DHT22;10332;50.208;18.988;2022-08-21T11:23:23;24.30;97.30
20349;DHT22;10332;50.208;18.988;2022-08-21T11:26:10;24.20;97.80
20349;DHT22;10332;50.208;18.988;2022-08-21T11:28:54;24.10;98.50
20349;DHT22;10332;50.208;18.988;2022-08-21T11:31:42;24.10;98.30
20349;DHT22;10332;50.208;18.988;2022-08-21T11:35:29;24.10;98.20
20349;DHT22;10332;50.208;18.988;2022-08-21T11:43:31;24.30;97.70
20349;DHT22;10332;50.208;18.988;2022-08-21T11:46:24;24.40;96.60
20349;DHT22;10332;50.208;18.988;2022-08-21T11:55:03;24.40;94.90
20349;DHT22;10332;50.208;18.988;2022-08-21T11:57:56;24.40;94.80
20349;DHT22;10332;50.208;18.988;2022-08-21T12:00:33;24.30;95.30
20349;DHT22;10332;50.208;18.988;2022-08-21T12:03:14;24.20;95.50
20349;DHT22;10332;50.208;18.988;2022-08-21T12:08:41;23.90;98.70
20349;DHT22;10332;50.208;18.988;2022-08-21T12:16:39;23.30;99.90
20349;DHT22;10332;50.208;18.988;2022-08-21T12:19:12;23.20;99.90
20349;DHT22;10332;50.208;18.988;2022-08-21T12:21:57;23.10;99.90
20349;DHT22;10332;50.208;18.988;2022-08-21T12:24:43;23.20;99.90
20349;DHT22;10332;50.208;18.988;2022-08-21T12:30:03;22.90;99.90
20349;DHT22;10332;50.208;18.988;2022-08-21T12:35:18;22.70;99.90
20349;DHT22;10332;50.208;18.988;2022-08-21T12:38:07;22.80;99.90
20349;DHT22;10332;50.208;18.988;2022-08-21T12:41:01;22.80;99.90
20349;DHT22;10332;50.208;18.988;2022-08-21T12:43:40;22.90;99.90
20349;DHT22;10332;50.208;18.988;2022-08-21T12:46:17;22.80;99.90
20349;DHT22;10332;50.208;18.988;2022-08-21T12:48:52;22.70;99.90
20349;DHT22;10332;50.208;18.988;2022-08-21T12:51:29;22.70;99.90
20349;DHT22;10332;50.208;18.988;2022-08-21T12:54:01;22.50;99.90
20349;DHT22;10332;50.208;18.988;2022-08-21T12:56:31;22.30;99.90
20349;DHT22;10332;50.208;18.988;2022-08-21T12:59:03;22.10;99.90
20349;DHT22;10332;50.208;18.988;2022-08-21T13:01:46;21.80;99.90
20349;DHT22;10332;50.208;18.988;2022-08-21T13:04:18;21.50;99.90
20349;DHT22;10332;50.208;18.988;2022-08-21T13:06:54;21.30;99.90
20349;DHT22;10332;50.208;18.988;2022-08-21T13:09:28;21.20;99.90
20349;DHT22;10332;50.208;18.988;2022-08-21T13:11:58;21.00;99.90
20349;DHT22;10332;50.208;18.988;2022-08-21T13:14:57;20.80;99.90
20349;DHT22;10332;50.208;18.988;2022-08-21T13:17:32;20.50;99.90
20349;DHT22;10332;50.208;18.988;2022-08-21T13:20:18;20.30;99.90
20349;DHT22;10332;50.208;18.988;2022-08-21T13:22:49;20.30;99.90
20349;DHT22;10332;50.208;18.988;2022-08-21T13:25:19;20.20;99.90
20349;DHT22;10332;50.208;18.988;2022-08-21T13:28:10;20.10;99.90
20349;DHT22;10332;50.208;18.988;2022-08-21T13:30:51;20.00;99.90
20349;DHT22;10332;50.208;18.988;2022-08-21T13:33:23;19.90;99.90
20349;DHT22;10332;50.208;18.988;2022-08-21T13:36:07;19.80;99.90
20349;DHT22;10332;50.208;18.988;2022-08-21T13:38:40;19.80;99.90
20349;DHT22;10332;50.208;18.988;2022-08-21T13:43:50;19.70;99.90
20349;DHT22;10332;50.208;18.988;2022-08-21T13:46:34;19.80;99.90
20349;DHT22;10332;50.208;18.988;2022-08-21T13:49:05;19.80;99.90
20349;DHT22;10332;50.208;18.988;2022-08-21T13:51:36;19.80;99.90
20349;DHT22;10332;50.208;18.988;2022-08-21T13:54:34;19.90;99.90
20349;DHT22;10332;50.208;18.988;2022-08-21T13:57:04;19.90;99.90
20349;DHT22;10332;50.208;18.988;2022-08-21T13:59:34;20.00;99.90
20349;DHT22;10332;50.208;18.988;2022-08-21T14:02:19;20.10;99.90
20349;DHT22;10332;50.208;18.988;2022-08-21T14:04:59;20.00;99.90
20349;DHT22;10332;50.208;18.988;2022-08-21T14:07:40;19.90;99.90
20349;DHT22;10332;50.208;18.988;2022-08-21T14:10:21;19.90;99.90
20349;DHT22;10332;50.208;18.988;2022-08-21T14:12:57;19.90;99.90
20349;DHT22;10332;50.208;18.988;2022-08-21T14:15:31;19.90;99.90
20349;DHT22;10332;50.208;18.988;2022-08-21T14:18:08;19.80;99.90
20349;DHT22;10332;50.208;18.988;2022-08-21T14:20:43;19.80;99.90
20349;DHT22;10332;50.208;18.988;2022-08-21T14:23:22;19.80;99.90
20349;DHT22;10332;50.208;18.988;2022-08-21T14:25:52;19.70;99.90
20349;DHT22;10332;50.208;18.988;2022-08-21T14:28:23;19.80;99.90
20349;DHT22;10332;50.208;18.988;2022-08-21T14:31:17;19.80;99.90
20349;DHT22;10332;50.208;18.988;2022-08-21T14:33:48;19.90;99.90
20349;DHT22;10332;50.208;18.988;2022-08-21T14:36:15;19.90;99.90
20349;DHT22;10332;50.208;18.988;2022-08-21T14:38:43;19.80;99.90
20349;DHT22;10332;50.208;18.988;2022-08-21T14:41:16;19.80;99.90
20349;DHT22;10332;50.208;18.988;2022-08-21T14:43:47;19.90;99.90
20349;DHT22;10332;50.208;18.988;2022-08-21T14:46:34;19.90;99.90
20349;DHT22;10332;50.208;18.988;2022-08-21T14:49:26;19.90;99.90
20349;DHT22;10332;50.208;18.988;2022-08-21T14:51:56;19.90;99.90
20349;DHT22;10332;50.208;18.988;2022-08-21T14:54:27;19.80;99.90
20349;DHT22;10332;50.208;18.988;2022-08-21T14:57:06;19.70;99.90
20349;DHT22;10332;50.208;18.988;2022-08-21T14:59:37;19.60;99.90
20349;DHT22;10332;50.208;18.988;2022-08-21T15:02:06;19.50;99.90
20349;DHT22;10332;50.208;18.988;2022-08-21T15:04:35;19.50;99.90
20349;DHT22;10332;50.208;18.988;2022-08-21T15:07:03;19.50;99.90
20349;DHT22;10332;50.208;18.988;2022-08-21T15:09:30;19.50;99.90
20349;DHT22;10332;50.208;18.988;2022-08-21T15:12:00;19.50;99.90
20349;DHT22;10332;50.208;18.988;2022-08-21T15:14:31;19.50;99.90
20349;DHT22;10332;50.208;18.988;2022-08-21T15:17:02;19.60;99.90
20349;DHT22;10332;50.208;18.988;2022-08-21T15:19:30;19.60;99.90
20349;DHT22;10332;50.208;18.988;2022-08-21T15:21:58;19.50;99.90
20349;DHT22;10332;50.208;18.988;2022-08-21T15:24:27;19.50;99.90
20349;DHT22;10332;50.208;18.988;2022-08-21T15:26:55;19.50;99.90
20349;DHT22;10332;50.208;18.988;2022-08-21T15:29:23;19.50;99.90
20349;DHT22;10332;50.208;18.988;2022-08-21T15:32:01;19.50;99.90
20349;DHT22;10332;50.208;18.988;2022-08-21T15:34:41;19.60;99.90
20349;DHT22;10332;50.208;18.988;2022-08-21T15:37:09;19.60;99.90
20349;DHT22;10332;50.208;18.988;2022-08-21T15:39:36;19.60;99.90
20349;DHT22;10332;50.208;18.988;2022-08-21T15:42:07;19.60;99.90
20349;DHT22;10332;50.208;18.988;2022-08-21T15:44:38;19.60;99.90
20349;DHT22;10332;50.208;18.988;2022-08-21T15:47:12;19.50;99.90
20349;DHT22;10332;50.208;18.988;2022-08-21T15:49:44;19.50;99.90
20349;DHT22;10332;50.208;18.988;2022-08-21T15:52:17;19.40;99.90
20349;DHT22;10332;50.208;18.988;2022-08-21T15:54:47;19.30;99.90
20349;DHT22;10332;50.208;18.988;2022-08-21T15:57:17;19.20;99.90
20349;DHT22;10332;50.208;18.988;2022-08-21T15:59:57;19.10;99.90
20349;DHT22;10332;50.208;18.988;2022-08-21T16:02:32;19.00;99.90
20349;DHT22;10332;50.208;18.988;2022-08-21T16:05:00;18.90;99.90
20349;DHT22;10332;50.208;18.988;2022-08-21T16:07:27;19.00;99.90
20349;DHT22;10332;50.208;18.988;2022-08-21T16:09:54;19.00;99.90
20349;DHT22;10332;50.208;18.988;2022-08-21T16:12:25;19.00;99.90
20349;DHT22;10332;50.208;18.988;2022-08-21T16:14:59;19.00;99.90
20349;DHT22;10332;50.208;18.988;2022-08-21T16:17:31;18.90;99.90
20349;DHT22;10332;50.208;18.988;2022-08-21T16:20:02;18.90;99.90
20349;DHT22;10332;50.208;18.988;2022-08-21T16:22:33;18.90;99.90
20349;DHT22;10332;50.208;18.988;2022-08-21T16:25:11;18.90;99.90
20349;DHT22;10332;50.208;18.988;2022-08-21T16:27:44;18.80;99.90
20349;DHT22;10332;50.208;18.988;2022-08-21T16:30:16;18.70;99.90
20349;DHT22;10332;50.208;18.988;2022-08-21T16:32:46;18.60;99.90
20349;DHT22;10332;50.208;18.988;2022-08-21T16:35:17;18.50;99.90
20349;DHT22;10332;50.208;18.988;2022-08-21T16:37:46;18.50;99.90
20349;DHT22;10332;50.208;18.988;2022-08-21T16:40:20;18.50;99.90
20349;DHT22;10332;50.208;18.988;2022-08-21T16:42:49;18.40;99.90
20349;DHT22;10332;50.208;18.988;2022-08-21T16:45:18;18.50;99.90
20349;DHT22;10332;50.208;18.988;2022-08-21T16:47:47;18.50;99.90
20349;DHT22;10332;50.208;18.988;2022-08-21T16:50:18;18.40;99.90
20349;DHT22;10332;50.208;18.988;2022-08-21T16:52:49;18.50;99.90
20349;DHT22;10332;50.208;18.988;2022-08-21T16:55:16;18.50;99.90
20349;DHT22;10332;50.208;18.988;2022-08-21T16:57:44;18.50;99.90
20349;DHT22;10332;50.208;18.988;2022-08-21T17:00:12;18.60;99.90
20349;DHT22;10332;50.208;18.988;2022-08-21T17:02:48;18.60;99.90
20349;DHT22;10332;50.208;18.988;2022-08-21T17:05:20;18.70;99.90
20349;DHT22;10332;50.208;18.988;2022-08-21T17:07:47;18.70;99.90